createdAt,value
2023-02-26T00:02:30.596Z,-2.16
2023-02-26T00:07:33.775Z,-2.16
2023-02-26T00:12:37.942Z,-2.13
2023-02-26T00:17:46.456Z,-2.07
2023-02-26T00:22:49.712Z,-2.02
2023-02-26T00:27:53.027Z,-2.03
2023-02-26T00:32:58.050Z,-1.97
2023-02-26T00:38:03.674Z,-2.00
2023-02-26T00:43:09.146Z,-1.99
2023-02-26T00:48:31.120Z,-1.97
2023-02-26T00:53:42.114Z,-1.87
2023-02-26T00:58:44.897Z,-1.85
2023-02-26T01:03:49.811Z,-1.82
2023-02-26T01:09:00.722Z,-1.73
2023-02-26T01:14:04.234Z,-1.66
2023-02-26T01:19:17.668Z,-1.57
2023-02-26T01:24:24.093Z,-1.46
2023-02-26T01:29:27.353Z,-1.35
2023-02-26T01:34:38.003Z,-1.31
2023-02-26T01:39:43.900Z,-1.24
2023-02-26T01:44:57.025Z,-1.19
2023-02-26T01:50:11.222Z,-1.11
2023-02-26T01:55:14.389Z,-1.13
2023-02-26T02:00:17.839Z,-1.28
2023-02-26T02:05:29.475Z,-1.29
2023-02-26T02:10:33.321Z,-1.48
2023-02-26T02:15:45.200Z,-1.34
2023-02-26T02:21:24.682Z,-1.32
2023-02-26T02:26:55.803Z,-1.32
2023-02-26T02:32:06.265Z,-1.41
2023-02-26T02:37:15.629Z,-1.50
2023-02-26T02:42:25.544Z,-1.55
2023-02-26T02:47:34.480Z,-1.66
2023-02-26T02:52:42.177Z,-1.83
2023-02-26T02:57:49.633Z,-1.85
2023-02-26T03:03:00.513Z,-1.79
2023-02-26T03:08:06.376Z,-1.74
2023-02-26T03:13:16.953Z,-1.70
2023-02-26T03:18:31.455Z,-1.78
2023-02-26T03:23:41.187Z,-1.85
2023-02-26T03:28:50.638Z,-1.91
2023-02-26T03:34:01.080Z,-1.92
2023-02-26T03:39:09.874Z,-2.00
2023-02-26T03:44:19.509Z,-2.10
2023-02-26T03:49:28.404Z,-2.13
2023-02-26T03:54:34.979Z,-2.24
2023-02-26T03:59:57.962Z,-2.29
2023-02-26T04:05:24.558Z,-2.29
2023-02-26T04:10:33.247Z,-2.35
2023-02-26T04:15:36.117Z,-2.39
2023-02-26T04:20:40.370Z,-2.46
2023-02-26T04:25:43.488Z,-2.52
2023-02-26T04:30:47.725Z,-2.65
2023-02-26T04:35:52.808Z,-2.73
2023-02-26T04:40:55.855Z,-2.76
2023-02-26T04:46:00.154Z,-2.79
2023-02-26T04:51:04.624Z,-2.88
2023-02-26T04:56:08.599Z,-2.94
2023-02-26T05:01:13.634Z,-2.99
2023-02-26T05:06:17.756Z,-3.05
2023-02-26T05:11:20.616Z,-3.11
2023-02-26T05:16:23.822Z,-3.13
2023-02-26T05:21:28.556Z,-3.25
2023-02-26T05:26:31.803Z,-3.39
2023-02-26T05:31:34.679Z,-3.46
2023-02-26T05:36:38.916Z,-3.49
2023-02-26T05:41:42.752Z,-3.62
2023-02-26T05:46:45.613Z,-3.69
2023-02-26T05:51:49.937Z,-3.62
2023-02-26T05:56:52.793Z,-3.53
2023-02-26T06:01:55.590Z,-3.47
2023-02-26T06:06:59.807Z,-3.45
2023-02-26T06:12:02.676Z,-3.37
2023-02-26T06:17:06.908Z,-3.31
2023-02-26T06:22:11.105Z,-3.25
2023-02-26T06:27:13.936Z,-3.08
2023-02-26T06:32:16.789Z,-3.03
2023-02-26T06:37:21.017Z,-2.89
2023-02-26T06:42:23.828Z,-2.63
2023-02-26T06:47:26.556Z,-2.29
2023-02-26T06:52:31.333Z,-1.96
2023-02-26T06:57:34.121Z,-1.49
2023-02-26T07:02:37.601Z,-1.15
2023-02-26T07:07:41.937Z,-0.72
2023-02-26T07:12:44.676Z,-0.53
2023-02-26T07:17:47.559Z,-0.28
2023-02-26T07:22:51.669Z,-0.08
2023-02-26T07:27:54.654Z,0.24
2023-02-26T07:32:57.565Z,0.57
2023-02-26T07:38:01.956Z,0.63
2023-02-26T07:43:07.891Z,0.75
2023-02-26T07:48:11.004Z,1.03
2023-02-26T07:53:15.236Z,1.08
2023-02-26T07:58:18.100Z,1.00
2023-02-26T08:03:21.098Z,1.03
2023-02-26T08:08:25.212Z,1.36
2023-02-26T08:13:28.714Z,1.40
2023-02-26T08:18:31.585Z,1.53
2023-02-26T08:23:35.968Z,1.66
2023-02-26T08:28:39.500Z,1.70
2023-02-26T08:33:43.433Z,1.80
2023-02-26T08:38:48.253Z,1.56
2023-02-26T08:43:51.446Z,1.75
2023-02-26T08:48:54.768Z,2.04
2023-02-26T08:53:58.978Z,2.01
2023-02-26T08:59:01.961Z,1.93
2023-02-26T09:04:05.107Z,2.32
2023-02-26T09:09:10.010Z,2.25
2023-02-26T09:14:12.772Z,2.08
2023-02-26T09:19:15.568Z,2.37
2023-02-26T09:24:20.257Z,2.47
2023-02-26T09:29:23.202Z,2.37
2023-02-26T09:34:26.049Z,2.62
2023-02-26T09:39:30.508Z,2.71
2023-02-26T09:44:35.357Z,2.57
2023-02-26T09:49:52.522Z,2.59
2023-02-26T09:55:01.526Z,2.62
2023-02-26T10:00:19.016Z,2.71
2023-02-26T10:05:29.265Z,2.33
2023-02-26T10:10:45.132Z,2.35
2023-02-26T10:15:51.377Z,1.93
2023-02-26T10:20:58.254Z,2.10
2023-02-26T10:26:09.164Z,2.25
2023-02-26T10:31:19.695Z,2.36
2023-02-26T10:36:29.218Z,3.11
2023-02-26T10:41:37.684Z,3.28
2023-02-26T10:46:47.432Z,3.35
2023-02-26T10:51:52.794Z,3.02
2023-02-26T10:56:57.140Z,3.11
2023-02-26T11:02:01.141Z,3.31
2023-02-26T11:07:06.217Z,3.58
2023-02-26T11:12:15.167Z,3.61
2023-02-26T11:17:20.698Z,3.28
2023-02-26T11:22:23.612Z,3.25
2023-02-26T11:27:33.020Z,3.24
2023-02-26T11:32:39.529Z,2.75
2023-02-26T11:37:47.638Z,3.34
2023-02-26T11:42:54.805Z,3.90
2023-02-26T11:47:59.746Z,3.78
2023-02-26T11:53:08.280Z,3.41
2023-02-26T11:58:20.591Z,4.14
2023-02-26T12:03:28.627Z,3.87
2023-02-26T12:08:38.429Z,3.86
2023-02-26T12:13:48.956Z,3.00
2023-02-26T12:19:02.643Z,3.25
2023-02-26T12:24:31.024Z,3.33
2023-02-26T12:30:04.289Z,3.47
2023-02-26T12:35:25.606Z,3.63
2023-02-26T12:40:50.676Z,3.39
2023-02-26T12:46:03.933Z,3.33
2023-02-26T12:51:19.926Z,3.49
2023-02-26T12:56:42.881Z,3.72
2023-02-26T13:02:01.446Z,5.25
2023-02-26T13:07:29.282Z,3.64
2023-02-26T13:12:42.566Z,4.12
2023-02-26T13:17:55.384Z,4.14
2023-02-26T13:23:02.316Z,4.65
2023-02-26T13:28:12.619Z,4.32
2023-02-26T13:33:18.908Z,4.14
2023-02-26T13:38:29.359Z,4.47
2023-02-26T13:43:47.561Z,4.81
2023-02-26T13:48:58.734Z,4.41
2023-02-26T13:54:04.381Z,4.45
2023-02-26T13:59:27.598Z,4.24
2023-02-26T14:04:33.134Z,4.27
2023-02-26T14:09:52.180Z,4.05
2023-02-26T14:15:19.969Z,3.84
2023-02-26T14:20:29.621Z,3.49
2023-02-26T14:25:37.519Z,3.51
2023-02-26T14:30:47.701Z,3.78
2023-02-26T14:35:54.986Z,3.90
2023-02-26T14:41:02.562Z,4.22
2023-02-26T14:46:06.768Z,4.45
2023-02-26T14:51:30.491Z,4.31
2023-02-26T14:56:48.155Z,4.54
2023-02-26T15:01:59.143Z,4.26
2023-02-26T15:07:24.332Z,3.66
2023-02-26T15:12:41.880Z,3.55
2023-02-26T15:17:57.704Z,3.52
2023-02-26T15:23:13.897Z,3.58
2023-02-26T15:28:26.506Z,3.53
2023-02-26T15:33:30.362Z,3.50
2023-02-26T15:38:43.265Z,3.61
2023-02-26T15:43:50.887Z,3.54
2023-02-26T15:48:57.664Z,3.15
2023-02-26T15:54:04.380Z,2.94
2023-02-26T15:59:14.277Z,2.57
2023-02-26T16:04:19.922Z,2.60
2023-02-26T16:09:30.916Z,2.51
2023-02-26T16:14:42.531Z,2.32
2023-02-26T16:19:48.739Z,2.41
2023-02-26T16:24:57.181Z,2.32
2023-02-26T16:30:03.656Z,2.25
2023-02-26T16:35:14.803Z,2.12
2023-02-26T16:40:24.376Z,2.00
2023-02-26T16:45:49.253Z,1.86
2023-02-26T16:50:58.155Z,1.79
2023-02-26T16:56:03.108Z,1.65
2023-02-26T17:01:10.453Z,1.48
2023-02-26T17:06:17.632Z,1.37
2023-02-26T17:11:25.879Z,1.29
2023-02-26T17:16:29.713Z,1.17
2023-02-26T17:21:33.928Z,1.08
2023-02-26T17:26:38.198Z,0.98
2023-02-26T17:31:43.628Z,0.88
2023-02-26T17:36:47.864Z,0.82
2023-02-26T17:41:52.824Z,0.72
2023-02-26T17:46:55.595Z,0.63
2023-02-26T17:51:58.424Z,0.57
2023-02-26T17:57:03.236Z,0.49
2023-02-26T18:02:16.692Z,0.43
2023-02-26T18:07:21.841Z,0.40
2023-02-26T18:12:26.293Z,0.36
2023-02-26T18:17:31.078Z,0.32
2023-02-26T18:22:34.301Z,0.31
2023-02-26T18:27:38.867Z,0.26
2023-02-26T18:32:41.806Z,0.20
2023-02-26T18:37:45.756Z,0.17
2023-02-26T18:42:50.238Z,0.11
2023-02-26T18:47:53.035Z,0.11
2023-02-26T18:52:55.979Z,0.12
2023-02-26T18:58:00.216Z,0.09
2023-02-26T19:03:03.191Z,0.04
2023-02-26T19:08:07.876Z,0.01
2023-02-26T19:13:13.156Z,0.02
2023-02-26T19:18:16.153Z,-0.02
2023-02-26T19:23:19.552Z,-0.05
2023-02-26T19:28:24.336Z,-0.07
2023-02-26T19:33:27.310Z,-0.09
2023-02-26T19:38:30.057Z,-0.17
2023-02-26T19:43:34.261Z,-0.21
2023-02-26T19:48:37.141Z,-0.29
2023-02-26T19:53:39.934Z,-0.37
2023-02-26T19:58:44.201Z,-0.44
2023-02-26T20:03:48.998Z,-0.48
2023-02-26T20:08:52.540Z,-0.57
2023-02-26T20:13:56.892Z,-0.60
2023-02-26T20:19:00.142Z,-0.63
2023-02-26T20:24:02.874Z,-0.66
2023-02-26T20:29:07.082Z,-0.70
2023-02-26T20:34:09.856Z,-0.72
2023-02-26T20:39:13.428Z,-0.72
2023-02-26T20:44:17.762Z,-0.74
2023-02-26T20:49:20.613Z,-0.77
2023-02-26T20:54:23.869Z,-0.79
2023-02-26T20:59:28.141Z,-0.80
2023-02-26T21:04:31.046Z,-0.83
2023-02-26T21:09:33.809Z,-0.87
2023-02-26T21:14:38.017Z,-0.87
2023-02-26T21:19:41.760Z,-0.92
2023-02-26T21:24:45.152Z,-0.97
2023-02-26T21:29:49.368Z,-0.98
2023-02-26T21:34:52.182Z,-1.01
2023-02-26T21:39:55.046Z,-1.04
2023-02-26T21:44:59.308Z,-1.11
2023-02-26T21:50:02.010Z,-1.14
2023-02-26T21:55:05.482Z,-1.18
2023-02-26T22:00:12.935Z,-1.22
2023-02-26T22:05:16.948Z,-1.29
2023-02-26T22:10:19.908Z,-1.31
2023-02-26T22:15:24.092Z,-1.27
2023-02-26T22:20:26.945Z,-1.30
2023-02-26T22:25:30.434Z,-1.31
2023-02-26T22:30:34.736Z,-1.32
2023-02-26T22:35:37.993Z,-1.35
2023-02-26T22:40:40.985Z,-1.42
2023-02-26T22:45:45.356Z,-1.46
2023-02-26T22:50:50.101Z,-1.51
2023-02-26T22:55:54.612Z,-1.48
2023-02-26T23:01:03.022Z,-1.52
2023-02-26T23:06:06.409Z,-1.56
2023-02-26T23:11:09.805Z,-1.58
2023-02-26T23:16:13.961Z,-1.68
2023-02-26T23:21:17.382Z,-1.68
2023-02-26T23:26:20.222Z,-1.76
2023-02-26T23:31:24.808Z,-1.86
2023-02-26T23:36:28.143Z,-1.92
2023-02-26T23:41:30.909Z,-1.94
2023-02-26T23:46:35.055Z,-1.96
2023-02-26T23:51:38.600Z,-1.97
2023-02-26T23:56:41.863Z,-1.97
